Time;durP1;ratioP1;P1;durP2;ratioP2;P2;SDS_P1;SDS_P2;PMS_P1;PMS_P2;Temp;Humidity;BMP_temperature;BMP_pressure;BME280_temperature;BME280_humidity;BME280_pressure;Samples;Min_cycle;Max_cycle;Signal;HPM_P1;HPM_P2
2022/03/08 00:01:20;;;;;;;6.63;2.83;;;-1.50;95.10;;;;;;10255408;28;20619;-88
2022/03/08 00:06:22;;;;;;;7.50;3.20;;;-1.50;96.80;;;;;;10240780;28;20382;-88
2022/03/08 00:11:24;;;;;;;8.25;3.17;;;-1.50;97.30;;;;;;10235149;28;20058;-88
2022/03/08 00:16:26;;;;;;;7.32;2.92;;;-1.60;99.00;;;;;;10249530;28;20055;-88
2022/03/08 00:21:28;;;;;;;9.30;3.22;;;-1.60;99.70;;;;;;10254504;28;20059;-88
2022/03/08 00:26:30;;;;;;;7.93;3.10;;;-1.70;99.90;;;;;;10223679;28;20049;-88
2022/03/08 00:31:32;;;;;;;6.50;2.17;;;-1.80;99.60;;;;;;10247263;28;20133;-88
2022/03/08 00:36:34;;;;;;;7.97;2.88;;;-1.80;98.30;;;;;;10243353;28;20054;-88
2022/03/08 00:42:13;;;;;;;6.60;2.47;;;-1.80;99.10;;;;;;10263484;28;20043;-89
2022/03/08 00:47:15;;;;;;;6.03;2.90;;;-1.80;98.90;;;;;;10245094;28;20405;-88
2022/03/08 00:52:17;;;;;;;6.90;2.05;;;-1.70;97.30;;;;;;10259942;28;20047;-88
2022/03/08 00:57:18;;;;;;;5.45;2.42;;;-1.70;96.60;;;;;;10237600;28;20494;-89
2022/03/08 01:02:20;;;;;;;6.15;2.67;;;-1.80;97.20;;;;;;10238806;28;20055;-88
2022/03/08 01:07:22;;;;;;;5.40;2.03;;;-1.90;98.80;;;;;;10246527;28;20042;-88
2022/03/08 01:12:24;;;;;;;4.97;2.33;;;-1.90;99.90;;;;;;10234828;28;20066;-88
2022/03/08 01:17:26;;;;;;;6.00;2.70;;;-2.00;99.90;;;;;;10235053;28;20790;-88
2022/03/08 01:22:28;;;;;;;6.40;2.20;;;-2.10;99.90;;;;;;10261791;28;20129;-88
2022/03/08 01:27:57;;;;;;;5.50;2.40;;;-2.10;99.90;;;;;;10247438;28;20058;-88
2022/03/08 01:32:59;;;;;;;9.65;2.22;;;-2.20;99.90;;;;;;10256767;28;20369;-88
2022/03/08 01:38:01;;;;;;;7.72;2.25;;;-2.20;99.90;;;;;;10250683;28;20047;-88
2022/03/08 01:43:03;;;;;;;9.95;2.20;;;-2.20;99.90;;;;;;10247020;28;20058;-88
2022/03/08 01:48:05;;;;;;;5.35;2.03;;;-2.20;99.90;;;;;;10250879;28;20054;-88
2022/03/08 01:53:07;;;;;;;5.90;2.42;;;-2.30;99.90;;;;;;10239625;28;20043;-88
2022/03/08 01:58:10;;;;;;;5.95;2.47;;;-2.30;99.90;;;;;;10268255;28;20050;-88
2022/03/08 02:03:11;;;;;;;7.28;2.58;;;-2.30;99.90;;;;;;10246637;28;20190;-88
2022/03/08 02:08:28;;;;;;;6.80;2.03;;;-2.30;99.90;;;;;;10264105;28;20050;-88
2022/03/08 02:13:30;;;;;;;4.32;2.05;;;-2.30;99.90;;;;;;10242111;28;20144;-88
2022/03/08 02:18:32;;;;;;;5.63;2.28;;;-2.40;99.90;;;;;;10244020;28;20046;-88
2022/03/08 02:23:34;;;;;;;14.57;3.65;;;-2.40;99.90;;;;;;10249059;28;20085;-88
2022/03/08 02:28:38;;;;;;;8.68;3.25;;;-2.50;99.90;;;;;;10273890;28;21227;-88
2022/03/08 02:33:40;;;;;;;7.28;2.25;;;-2.50;99.90;;;;;;10252092;28;20477;-89
2022/03/08 02:38:41;;;;;;;7.85;2.92;;;-2.50;99.90;;;;;;10248482;28;20061;-88
2022/03/08 02:43:43;;;;;;;5.25;1.95;;;-2.50;99.90;;;;;;10247863;28;20055;-88
2022/03/08 02:48:45;;;;;;;6.82;2.15;;;-2.60;99.90;;;;;;10244767;28;20046;-88
2022/03/08 02:53:47;;;;;;;8.85;2.08;;;-2.60;99.90;;;;;;10268838;28;20073;-88
2022/03/08 02:58:49;;;;;;;5.57;1.83;;;-2.60;99.90;;;;;;10245189;28;20051;-89
2022/03/08 03:03:50;;;;;;;4.80;2.00;;;-2.70;99.90;;;;;;10247969;28;20062;-89
2022/03/08 03:08:52;;;;;;;7.05;2.30;;;-2.70;99.90;;;;;;10234827;28;20055;-89
2022/03/08 03:13:54;;;;;;;5.03;2.15;;;-2.70;99.90;;;;;;10266014;28;20051;-89
2022/03/08 03:18:56;;;;;;;8.27;2.40;;;-2.70;99.90;;;;;;10242340;28;20843;-89
2022/03/08 03:23:58;;;;;;;6.18;1.98;;;-2.70;99.90;;;;;;10230458;28;20074;-89
2022/03/08 03:29:00;;;;;;;3.80;1.75;;;-2.60;99.90;;;;;;10234104;28;20055;-89
2022/03/08 03:34:04;;;;;;;5.03;1.77;;;-2.60;99.90;;;;;;10248624;28;20051;-89
2022/03/08 03:39:06;;;;;;;9.05;1.75;;;-2.60;99.90;;;;;;10254644;28;20050;-89
2022/03/08 03:44:08;;;;;;;5.00;2.38;;;-2.70;99.90;;;;;;10246459;28;20066;-89
2022/03/08 03:49:10;;;;;;;8.85;2.40;;;-2.70;99.90;;;;;;10226120;28;20489;-88
2022/03/08 03:54:12;;;;;;;6.30;2.67;;;-2.70;99.90;;;;;;10232582;28;20065;-88
2022/03/08 03:59:14;;;;;;;4.55;2.00;;;-2.80;99.90;;;;;;10248761;28;20062;-88
2022/03/08 04:04:16;;;;;;;5.60;1.83;;;-2.80;99.90;;;;;;10237875;28;20058;-88
2022/03/08 04:09:26;;;;;;;7.85;1.95;;;-2.80;99.90;;;;;;10271388;28;20453;-89
2022/03/08 04:14:28;;;;;;;6.78;2.55;;;-2.90;99.90;;;;;;10238455;28;20074;-89
2022/03/08 04:19:30;;;;;;;3.63;1.88;;;-2.90;99.90;;;;;;10228425;28;20413;-90
2022/03/08 04:24:32;;;;;;;5.43;1.90;;;-2.90;99.90;;;;;;10254013;28;20044;-90
2022/03/08 04:29:34;;;;;;;5.35;1.55;;;-2.90;99.90;;;;;;10241519;28;20054;-89
2022/03/08 04:34:35;;;;;;;5.78;1.73;;;-2.90;99.90;;;;;;10220417;28;20051;-89
2022/03/08 04:39:37;;;;;;;6.85;1.98;;;-2.90;99.90;;;;;;10244158;28;20487;-89
2022/03/08 04:44:39;;;;;;;6.63;2.22;;;-2.90;99.90;;;;;;10257644;28;20043;-89
2022/03/08 04:49:41;;;;;;;4.93;1.75;;;-2.90;99.90;;;;;;10260397;28;20138;-89
2022/03/08 04:54:43;;;;;;;5.18;2.50;;;-3.00;99.90;;;;;;10258751;28;20051;-89
2022/03/08 04:59:45;;;;;;;3.83;1.45;;;-3.00;99.90;;;;;;10245411;28;20051;-89
2022/03/08 05:05:39;;;;;;;6.70;2.22;;;-3.00;99.90;;;;;;10246637;28;20864;-89
2022/03/08 05:10:41;;;;;;;4.00;1.95;;;-3.10;99.90;;;;;;10255770;28;20051;-89
2022/03/08 05:15:44;;;;;;;7.00;2.20;;;-3.10;99.90;;;;;;10271977;28;20062;-89
2022/03/08 05:20:51;;;;;;;7.88;2.33;;;-3.20;99.90;;;;;;10256968;28;20402;-89
2022/03/08 05:25:53;;;;;;;4.93;2.13;;;-3.10;99.90;;;;;;10264967;28;20047;-89
2022/03/08 05:30:55;;;;;;;5.68;1.83;;;-3.20;99.90;;;;;;10241757;28;20044;-88
2022/03/08 05:35:57;;;;;;;7.00;2.17;;;-3.20;99.90;;;;;;10245770;28;20137;-89
2022/03/08 05:40:59;;;;;;;6.97;2.75;;;-3.20;99.90;;;;;;10240993;28;20543;-90
2022/03/08 05:46:01;;;;;;;7.25;2.70;;;-3.20;99.90;;;;;;10243716;28;20053;-90
2022/03/08 05:51:08;;;;;;;9.30;2.95;;;-3.10;99.90;;;;;;10246177;28;20098;-89
2022/03/08 05:56:12;;;;;;;10.93;2.80;;;-3.00;99.90;;;;;;10260293;28;20839;-91
2022/03/08 06:01:14;;;;;;;7.40;2.80;;;-2.80;99.90;;;;;;10250728;28;20061;-91
2022/03/08 06:06:17;;;;;;;13.23;3.13;;;-2.70;99.90;;;;;;10253300;28;20352;-92
2022/03/08 06:11:20;;;;;;;9.55;3.58;;;-2.60;99.90;;;;;;10209902;28;20121;-91
2022/03/08 06:16:21;;;;;;;8.00;2.50;;;-2.40;99.90;;;;;;10252005;28;20050;-91
2022/03/08 06:21:24;;;;;;;9.55;3.38;;;-2.40;99.90;;;;;;10235175;28;20392;-89
2022/03/08 06:26:26;;;;;;;6.30;2.22;;;-2.30;99.90;;;;;;10242469;28;20502;-90
2022/03/08 06:31:28;;;;;;;9.40;3.53;;;-2.20;99.90;;;;;;10250039;28;20137;-92
2022/03/08 06:36:30;;;;;;;10.30;2.70;;;-2.10;99.90;;;;;;10269530;28;20162;-91
2022/03/08 06:41:32;;;;;;;5.32;2.00;;;-2.00;99.90;;;;;;10241821;28;20067;-91
2022/03/08 06:46:35;;;;;;;5.45;2.33;;;-1.90;99.90;;;;;;10257712;28;20054;-92
2022/03/08 06:51:37;;;;;;;10.93;3.60;;;-1.90;99.90;;;;;;10234291;28;20073;-92
2022/03/08 06:56:39;;;;;;;9.10;3.63;;;-1.70;99.90;;;;;;10256293;28;20110;-90
2022/03/08 07:01:41;;;;;;;9.85;3.30;;;-1.60;99.90;;;;;;10237498;28;20057;-90
2022/03/08 07:06:43;;;;;;;12.77;3.15;;;-1.50;99.90;;;;;;10245941;28;20338;-91
2022/03/08 07:11:45;;;;;;;8.07;3.55;;;-1.50;99.90;;;;;;10251742;28;20051;-92
2022/03/08 07:16:48;;;;;;;8.18;3.25;;;-1.40;99.90;;;;;;10257053;28;20513;-93
2022/03/08 07:21:50;;;;;;;18.38;3.58;;;-1.30;99.90;;;;;;10216845;28;20401;-92
2022/03/08 07:26:52;;;;;;;7.80;3.35;;;-1.20;99.90;;;;;;10250673;28;20045;-91
2022/03/08 07:31:57;;;;;;;12.13;3.42;;;-1.00;99.90;;;;;;10250344;28;20035;-92
2022/03/08 07:37:04;;;;;;;8.77;3.33;;;-0.80;99.90;;;;;;10254845;28;20094;-92
2022/03/08 07:42:06;;;;;;;9.55;3.63;;;-0.50;98.90;;;;;;10232883;28;20051;-92
2022/03/08 07:47:08;;;;;;;6.85;2.65;;;-0.20;97.10;;;;;;10237178;28;20109;-93
2022/03/08 07:52:10;;;;;;;6.80;2.78;;;0.00;94.30;;;;;;10243020;28;20058;-93
2022/03/08 07:57:12;;;;;;;10.75;3.03;;;0.20;93.60;;;;;;10242084;28;20061;-93
2022/03/08 08:02:14;;;;;;;4.68;3.10;;;0.40;93.00;;;;;;10206950;28;20047;-93
2022/03/08 08:07:17;;;;;;;11.05;3.95;;;0.60;92.60;;;;;;10235179;28;20191;-92
2022/03/08 08:12:19;;;;;;;10.73;3.25;;;0.80;92.10;;;;;;10252077;28;20096;-93
2022/03/08 08:17:45;;;;;;;6.82;3.55;;;1.00;91.70;;;;;;10231431;28;20039;-93
2022/03/08 08:22:59;;;;;;;7.10;2.90;;;1.20;90.90;;;;;;10176204;28;20332;-93
2022/03/08 08:28:05;;;;;;;5.63;2.85;;;1.40;89.50;;;;;;10214103;28;20290;-93
2022/03/08 08:33:10;;;;;;;7.75;3.33;;;1.50;87.40;;;;;;10205254;28;20051;-93
2022/03/08 08:38:12;;;;;;;6.80;2.63;;;1.80;85.30;;;;;;10111881;28;20052;-93
2022/03/08 08:43:19;;;;;;;8.90;3.00;;;2.00;84.00;;;;;;10232504;28;20062;-94
2022/03/08 08:48:25;;;;;;;8.57;2.65;;;2.20;83.00;;;;;;10235629;28;20038;-93
2022/03/08 08:53:27;;;;;;;9.35;3.90;;;2.30;81.60;;;;;;10203122;28;20059;-93
2022/03/08 08:58:48;;;;;;;6.03;2.90;;;2.50;81.00;;;;;;10245985;28;20126;-93
2022/03/08 09:03:50;;;;;;;7.18;3.20;;;2.70;80.50;;;;;;10198866;28;20508;-93
2022/03/08 09:08:57;;;;;;;6.10;3.38;;;2.90;79.80;;;;;;10204901;28;20062;-93
2022/03/08 09:14:00;;;;;;;;;;;3.10;78.70;;;;;;10152915;28;20083;-93
2022/03/08 09:19:03;;;;;;;8.57;3.60;;;3.30;78.10;;;;;;10182753;28;19981;-93
2022/03/08 09:24:07;;;;;;;9.63;3.40;;;3.50;77.40;;;;;;10089976;28;20076;-93
2022/03/08 09:29:09;;;;;;;6.00;3.22;;;3.70;76.50;;;;;;10013443;28;20145;-93
2022/03/08 09:34:16;;;;;;;8.25;3.30;;;3.80;75.70;;;;;;10160714;28;20112;-93
2022/03/08 09:39:19;;;;;;;6.03;3.38;;;4.00;75.60;;;;;;10224831;28;20431;-93
2022/03/08 09:44:22;;;;;;;12.10;3.92;;;4.20;74.40;;;;;;10233005;28;20101;-94
2022/03/08 09:49:25;;;;;;;6.15;3.47;;;4.50;75.30;;;;;;10232845;28;20517;-93
2022/03/08 09:54:28;;;;;;;7.97;2.67;;;4.70;79.00;;;;;;10214299;28;20061;-93
2022/03/08 09:59:35;;;;;;;9.20;3.08;;;5.10;79.00;;;;;;10229610;28;20042;-91
2022/03/08 10:04:39;;;;;;;5.20;2.97;;;5.20;80.00;;;;;;10237964;28;20057;-91
2022/03/08 10:10:01;;;;;;;6.00;2.17;;;5.40;75.60;;;;;;10222311;28;20145;-91
2022/03/08 10:15:24;;;;;;;5.40;2.53;;;5.80;73.90;;;;;;10186107;28;20062;-91
2022/03/08 10:20:31;;;;;;;3.88;2.28;;;6.00;73.50;;;;;;10273872;28;20047;-91
2022/03/08 10:25:33;;;;;;;9.40;3.28;;;6.20;72.90;;;;;;10244980;28;20148;-91
2022/03/08 10:30:50;;;;;;;3.38;2.45;;;6.30;71.20;;;;;;10275625;28;20057;-91
2022/03/08 10:35:53;;;;;;;5.57;2.40;;;6.60;70.00;;;;;;10225140;28;20085;-92
2022/03/08 10:40:56;;;;;;;4.85;2.72;;;6.80;70.00;;;;;;10193025;28;20059;-93
2022/03/08 10:45:59;;;;;;;8.52;2.72;;;7.00;72.00;;;;;;10234111;28;20576;-91
2022/03/08 10:51:12;;;;;;;4.70;2.50;;;7.00;71.70;;;;;;10201768;28;20548;-91
2022/03/08 10:56:23;;;;;;;6.25;2.28;;;7.10;71.80;;;;;;10221713;28;20062;-91
2022/03/08 11:01:27;;;;;;;9.82;2.90;;;7.50;71.90;;;;;;10218525;28;20039;-92
2022/03/08 11:06:30;;;;;;;5.18;1.88;;;7.40;70.10;;;;;;10242082;28;20050;-91
2022/03/08 11:11:44;;;;;;;;;;;;;;;;;;;;;
2022/03/08 11:17:06;;;;;;;7.30;2.03;;;7.80;69.80;;;;;;10229073;28;20035;-92
2022/03/08 11:22:08;;;;;;;4.35;2.28;;;7.80;68.60;;;;;;10254959;28;20055;-92
2022/03/08 11:27:13;;;;;;;3.63;2.08;;;8.30;69.40;;;;;;10271899;28;20047;-91
2022/03/08 11:32:37;;;;;;;7.15;2.58;;;8.10;68.70;;;;;;10248511;28;20046;-91
2022/03/08 11:37:41;;;;;;;2.70;1.50;;;8.20;68.70;;;;;;10235439;28;20186;-92
2022/03/08 11:42:45;;;;;;;6.72;2.00;;;8.30;67.70;;;;;;10212112;28;20501;-92
2022/03/08 11:47:56;;;;;;;2.22;1.05;;;8.40;66.60;;;;;;10208354;28;20785;-91
2022/03/08 11:53:09;;;;;;;3.90;1.60;;;8.80;68.80;;;;;;10235230;28;20066;-91
2022/03/08 11:58:20;;;;;;;2.97;1.48;;;9.50;68.60;;;;;;10237194;28;20047;-92
2022/03/08 12:03:22;;;;;;;2.58;1.55;;;10.50;66.90;;;;;;10198867;28;20046;-91
2022/03/08 12:08:27;;;;;;;5.03;2.05;;;12.00;43.10;;;;;;10258915;28;20047;-91
2022/03/08 12:13:35;;;;;;;4.03;1.70;;;13.80;39.40;;;;;;10233706;28;20059;-91
2022/03/08 12:18:38;;;;;;;2.22;1.30;;;15.30;38.30;;;;;;10213137;28;20059;-92
2022/03/08 12:23:53;;;;;;;5.85;1.98;;;16.40;35.50;;;;;;10196705;28;20069;-92
2022/03/08 12:29:20;;;;;;;3.40;1.25;;;17.80;34.40;;;;;;10232153;28;20043;-92
2022/03/08 12:34:40;;;;;;;3.78;1.77;;;17.70;32.60;;;;;;10240393;28;20057;-92
2022/03/08 12:40:08;;;;;;;2.33;1.60;;;17.50;32.00;;;;;;10223684;28;20685;-91
2022/03/08 12:45:17;;;;;;;4.25;1.67;;;19.00;31.70;;;;;;10216210;28;20115;-92
2022/03/08 12:50:27;;;;;;;2.65;1.60;;;18.90;30.60;;;;;;10204688;28;20059;-92
2022/03/08 12:55:52;;;;;;;5.47;1.30;;;19.10;30.90;;;;;;10220887;28;20059;-91
2022/03/08 13:00:56;;;;;;;4.18;1.98;;;18.70;30.30;;;;;;10219970;28;20078;-92
2022/03/08 13:06:03;;;;;;;4.07;1.80;;;19.80;30.70;;;;;;10232415;28;20047;-93
2022/03/08 13:11:08;;;;;;;4.00;1.67;;;20.90;29.40;;;;;;10199206;28;20078;-92
2022/03/08 13:16:41;;;;;;;2.90;1.05;;;21.40;28.80;;;;;;9961516;28;20133;-93
2022/03/08 13:22:02;;;;;;;2.67;1.70;;;21.70;28.30;;;;;;10136900;28;20994;-93
2022/03/08 13:27:05;;;;;;;2.55;1.15;;;21.00;27.70;;;;;;10232904;28;20051;-92
2022/03/08 13:32:07;;;;;;;2.97;1.40;;;22.20;28.20;;;;;;10251253;28;20460;-92
2022/03/08 13:37:09;;;;;;;3.50;1.30;;;21.80;27.10;;;;;;10250902;28;20735;-92
2022/03/08 13:42:11;;;;;;;3.55;1.15;;;21.20;27.30;;;;;;10236562;28;20512;-91
2022/03/08 13:47:25;;;;;;;1.90;1.00;;;20.70;27.90;;;;;;10224790;28;20088;-92
2022/03/08 13:52:26;;;;;;;4.10;1.25;;;20.80;27.60;;;;;;10248709;28;20058;-91
2022/03/08 13:57:28;;;;;;;2.15;1.50;;;21.00;27.50;;;;;;10246198;28;20055;-91
2022/03/08 14:02:35;;;;;;;3.92;1.50;;;20.70;28.30;;;;;;10239158;28;20055;-92
2022/03/08 14:07:37;;;;;;;1.85;1.00;;;20.90;29.00;;;;;;10248728;28;20494;-91
2022/03/08 14:12:43;;;;;;;3.85;1.48;;;20.80;28.20;;;;;;10242901;28;20486;-90
2022/03/08 14:17:49;;;;;;;2.85;1.10;;;19.60;27.20;;;;;;10232473;28;21624;-92
2022/03/08 14:22:58;;;;;;;;;;;19.60;27.50;;;;;;10243901;28;20058;-92
2022/03/08 14:28:02;;;;;;;3.53;1.02;;;19.70;28.10;;;;;;10228111;28;19932;-91
2022/03/08 14:33:07;;;;;;;2.53;1.00;;;19.40;28.50;;;;;;10253093;28;20090;-91
2022/03/08 14:38:10;;;;;;;5.28;1.33;;;19.30;28.50;;;;;;10248591;28;20031;-91
2022/03/08 14:43:12;;;;;;;2.63;1.40;;;18.20;28.60;;;;;;10243288;28;20280;-90
2022/03/08 14:48:14;;;;;;;1.95;1.13;;;18.20;29.00;;;;;;10240000;28;20129;-90
2022/03/08 14:53:16;;;;;;;2.03;1.30;;;17.30;29.00;;;;;;10219213;28;20047;-90
2022/03/08 14:58:18;;;;;;;3.45;1.40;;;17.70;30.30;;;;;;10249752;28;20472;-91
2022/03/08 15:03:20;;;;;;;2.78;1.10;;;17.00;30.10;;;;;;10247091;28;20066;-90
2022/03/08 15:08:22;;;;;;;3.00;1.23;;;16.60;30.70;;;;;;10249457;28;20047;-91
2022/03/08 15:13:25;;;;;;;4.78;1.38;;;16.10;32.40;;;;;;10227251;28;20131;-91
2022/03/08 15:18:27;;;;;;;6.63;1.85;;;16.20;32.10;;;;;;10245307;28;20062;-90
2022/03/08 15:23:29;;;;;;;2.58;1.33;;;16.00;31.90;;;;;;10248183;28;20082;-90
2022/03/08 15:28:34;;;;;;;5.43;1.48;;;16.10;32.30;;;;;;10236351;28;20114;-90
2022/03/08 15:33:36;;;;;;;4.22;1.70;;;15.70;32.30;;;;;;10188369;28;20071;-90
2022/03/08 15:38:38;;;;;;;4.50;1.63;;;15.80;32.50;;;;;;10235886;28;20094;-90
2022/03/08 15:43:40;;;;;;;3.88;1.20;;;15.70;32.90;;;;;;10252375;28;20134;-90
2022/03/08 15:48:45;;;;;;;2.30;1.10;;;15.40;33.90;;;;;;10245748;28;20145;-90
2022/03/08 15:53:47;;;;;;;3.33;0.98;;;15.10;35.00;;;;;;10276478;28;20129;-90
2022/03/08 15:58:49;;;;;;;3.47;1.20;;;14.30;35.20;;;;;;10220262;28;20051;-90
2022/03/08 16:03:51;;;;;;;4.55;1.50;;;14.40;33.70;;;;;;10245752;28;20102;-90
2022/03/08 16:08:56;;;;;;;2.38;1.33;;;14.00;33.80;;;;;;10250392;28;20101;-90
2022/03/08 16:13:58;;;;;;;7.95;2.03;;;13.70;34.30;;;;;;10227789;28;20145;-90
2022/03/08 16:19:00;;;;;;;5.10;1.25;;;13.60;34.60;;;;;;10219669;28;20071;-90
2022/03/08 16:24:02;;;;;;;4.72;2.05;;;13.20;35.20;;;;;;10230502;28;20141;-91
2022/03/08 16:29:04;;;;;;;6.05;2.08;;;12.60;36.00;;;;;;10243105;28;20082;-91
2022/03/08 16:34:07;;;;;;;3.63;1.83;;;12.10;37.00;;;;;;10253204;28;20051;-91
2022/03/08 16:39:09;;;;;;;9.38;1.70;;;11.70;37.40;;;;;;10258332;28;20050;-92
2022/03/08 16:44:10;;;;;;;3.75;1.52;;;11.30;38.30;;;;;;10242631;28;20051;-91
2022/03/08 16:49:12;;;;;;;4.60;1.75;;;11.00;39.60;;;;;;10250771;28;20412;-91
2022/03/08 16:54:14;;;;;;;12.23;2.25;;;10.50;40.10;;;;;;10224106;28;20103;-91
2022/03/08 16:59:16;;;;;;;5.75;2.08;;;10.20;40.80;;;;;;10198388;28;20086;-92
2022/03/08 17:04:18;;;;;;;5.38;2.17;;;9.80;42.00;;;;;;10223676;28;20094;-91
2022/03/08 17:09:20;;;;;;;3.85;1.90;;;9.50;43.00;;;;;;10258993;28;20478;-91
2022/03/08 17:14:22;;;;;;;3.65;1.70;;;9.20;45.00;;;;;;10250664;28;20055;-91
2022/03/08 17:19:24;;;;;;;4.22;1.67;;;8.90;45.50;;;;;;10217440;28;20130;-91
2022/03/08 17:24:26;;;;;;;6.43;2.30;;;8.60;46.50;;;;;;10258837;28;20110;-91
2022/03/08 17:29:27;;;;;;;6.38;1.58;;;8.30;47.30;;;;;;10238115;28;20057;-91
2022/03/08 17:34:29;;;;;;;5.60;1.65;;;8.10;47.70;;;;;;10216887;28;20398;-91
2022/03/08 17:39:33;;;;;;;5.75;2.47;;;7.80;48.30;;;;;;10069977;28;20055;-91
2022/03/08 17:44:34;;;;;;;9.35;2.70;;;7.60;49.30;;;;;;10236564;28;20358;-91
2022/03/08 17:49:36;;;;;;;8.30;3.15;;;7.30;50.40;;;;;;10268516;28;20051;-90
2022/03/08 17:54:38;;;;;;;7.70;3.92;;;7.10;51.30;;;;;;10266490;28;20065;-90
2022/03/08 17:59:41;;;;;;;6.28;2.63;;;6.80;52.10;;;;;;10245948;28;20069;-90
2022/03/08 18:04:43;;;;;;;7.65;3.20;;;6.60;52.50;;;;;;10252387;28;20058;-90
2022/03/08 18:09:46;;;;;;;11.13;3.22;;;6.30;57.30;;;;;;10210835;28;20094;-91
2022/03/08 18:14:48;;;;;;;8.88;2.60;;;6.00;57.10;;;;;;10199117;28;20055;-89
2022/03/08 18:19:50;;;;;;;6.97;3.03;;;5.80;57.20;;;;;;10242652;28;20051;-90
2022/03/08 18:24:55;;;;;;;10.13;3.70;;;5.50;57.20;;;;;;10249587;28;20058;-90
2022/03/08 18:29:57;;;;;;;19.05;6.05;;;5.30;58.10;;;;;;10249175;28;20059;-89
2022/03/08 18:34:59;;;;;;;14.80;5.20;;;5.10;58.70;;;;;;10274675;28;20057;-90
2022/03/08 18:40:03;;;;;;;16.10;4.95;;;4.90;61.30;;;;;;10274239;28;20067;-90
2022/03/08 18:45:06;;;;;;;13.50;4.97;;;4.60;63.90;;;;;;10239337;28;20054;-90
2022/03/08 18:50:13;;;;;;;9.85;4.57;;;4.40;64.20;;;;;;10242809;28;20225;-90
2022/03/08 18:55:15;;;;;;;9.23;2.87;;;4.30;64.50;;;;;;10201543;28;20045;-89
2022/03/08 19:00:18;;;;;;;9.55;4.40;;;4.10;66.70;;;;;;10239478;28;20058;-89
2022/03/08 19:05:21;;;;;;;12.00;5.03;;;3.90;67.00;;;;;;9768521;28;20340;-89
2022/03/08 19:10:23;;;;;;;13.02;6.75;;;3.70;67.60;;;;;;9836677;28;20054;-89
2022/03/08 19:15:25;;;;;;;14.05;5.10;;;3.60;67.70;;;;;;9833632;28;20047;-89
2022/03/08 19:20:28;;;;;;;12.10;5.63;;;3.40;67.80;;;;;;9827953;28;20055;-89
2022/03/08 19:25:30;;;;;;;12.15;4.50;;;3.30;68.10;;;;;;10097895;28;20055;-89
2022/03/08 19:30:32;;;;;;;13.43;4.30;;;3.20;69.10;;;;;;10249533;28;20046;-89
2022/03/08 19:35:38;;;;;;;13.27;4.57;;;3.10;69.10;;;;;;10245171;28;20054;-89
2022/03/08 19:40:42;;;;;;;22.70;9.95;;;2.90;69.90;;;;;;10284554;28;20077;-88
2022/03/08 19:45:45;;;;;;;27.80;9.57;;;2.80;71.90;;;;;;10249989;28;20468;-88
2022/03/08 19:50:48;;;;;;;16.88;7.15;;;2.60;72.90;;;;;;10255808;28;20066;-89
2022/03/08 19:55:50;;;;;;;18.27;7.95;;;2.50;74.70;;;;;;10220080;28;20478;-89
2022/03/08 20:01:05;;;;;;;17.63;6.03;;;2.40;75.20;;;;;;10257717;28;20519;-88
2022/03/08 20:06:08;;;;;;;12.45;5.22;;;2.30;77.10;;;;;;10246419;28;20072;-90
2022/03/08 20:11:11;;;;;;;12.73;4.97;;;2.10;76.30;;;;;;10261775;28;20056;-89
2022/03/08 20:16:13;;;;;;;12.20;4.32;;;2.00;76.20;;;;;;10264742;28;20106;-89
2022/03/08 20:21:16;;;;;;;17.15;6.55;;;1.90;76.70;;;;;;10256828;28;20054;-88
2022/03/08 20:26:17;;;;;;;15.40;5.93;;;1.90;76.50;;;;;;10266461;28;20065;-88
2022/03/08 20:31:19;;;;;;;15.07;5.32;;;1.80;76.60;;;;;;10254446;28;20051;-88
2022/03/08 20:36:21;;;;;;;16.85;6.03;;;1.70;77.50;;;;;;10288243;28;20047;-89
2022/03/08 20:41:23;;;;;;;15.00;6.47;;;1.60;79.00;;;;;;10295898;28;20058;-89
2022/03/08 20:46:25;;;;;;;11.82;5.68;;;1.50;79.60;;;;;;10278054;28;20091;-88
2022/03/08 20:51:27;;;;;;;12.00;5.03;;;1.40;79.90;;;;;;10261211;28;20046;-90
2022/03/08 20:56:33;;;;;;;11.02;4.88;;;1.30;81.50;;;;;;10201594;28;20058;-89
2022/03/08 21:01:38;;;;;;;9.68;4.47;;;1.20;82.40;;;;;;10261605;28;20560;-90
2022/03/08 21:06:41;;;;;;;12.52;3.95;;;1.10;81.40;;;;;;10270893;28;20066;-90
2022/03/08 21:11:43;;;;;;;9.27;4.28;;;1.00;81.60;;;;;;10263254;28;20082;-89
2022/03/08 21:16:45;;;;;;;10.70;3.65;;;1.00;83.40;;;;;;10273181;28;20048;-90
2022/03/08 21:21:49;;;;;;;12.70;4.43;;;0.90;84.80;;;;;;10280927;28;21240;-89
2022/03/08 21:26:57;;;;;;;12.20;4.75;;;0.70;84.30;;;;;;10273663;28;20077;-89
2022/03/08 21:31:59;;;;;;;12.77;4.28;;;0.70;84.30;;;;;;10287142;28;20106;-89
2022/03/08 21:37:02;;;;;;;9.73;3.63;;;0.60;85.70;;;;;;10282729;28;20052;-89
2022/03/08 21:42:05;;;;;;;11.63;3.63;;;0.50;85.40;;;;;;10223379;28;20048;-89
2022/03/08 21:47:07;;;;;;;14.73;4.72;;;0.50;86.50;;;;;;10284979;28;20050;-90
2022/03/08 21:52:12;;;;;;;9.10;3.80;;;0.40;87.70;;;;;;10255127;28;20055;-87
2022/03/08 21:57:14;;;;;;;12.80;4.55;;;0.30;88.40;;;;;;10253960;28;20051;-87
2022/03/08 22:02:16;;;;;;;11.88;4.15;;;0.20;88.40;;;;;;10272411;28;20059;-87
2022/03/08 22:07:23;;;;;;;10.88;4.10;;;0.20;87.80;;;;;;10253332;28;20058;-87
2022/03/08 22:12:25;;;;;;;11.67;4.33;;;0.10;88.90;;;;;;10234679;28;20066;-88
2022/03/08 22:17:27;;;;;;;14.32;3.85;;;0.10;90.30;;;;;;10262661;28;20138;-87
2022/03/08 22:22:28;;;;;;;11.85;4.55;;;0.00;91.00;;;;;;10252877;28;20110;-87
2022/03/08 22:27:30;;;;;;;11.77;4.80;;;-0.10;91.10;;;;;;10265164;28;20062;-87
2022/03/08 22:32:33;;;;;;;10.45;5.10;;;-0.10;91.10;;;;;;10263157;28;20095;-87
2022/03/08 22:37:35;;;;;;;12.32;4.75;;;-0.20;92.30;;;;;;10252157;28;20145;-87
2022/03/08 22:43:00;;;;;;;10.95;4.05;;;-0.20;92.00;;;;;;10249455;28;20051;-87
2022/03/08 22:48:02;;;;;;;14.40;5.18;;;-0.30;92.00;;;;;;10276666;28;20050;-87
2022/03/08 22:53:06;;;;;;;15.30;4.68;;;-0.30;92.80;;;;;;10266237;28;20065;-88
2022/03/08 22:58:08;;;;;;;10.25;4.10;;;-0.40;94.00;;;;;;10232963;28;20110;-87
2022/03/08 23:03:24;;;;;;;13.30;4.53;;;-0.50;94.10;;;;;;10252613;28;20054;-87
2022/03/08 23:08:26;;;;;;;10.10;4.22;;;-0.50;95.00;;;;;;10231866;28;20061;-87
2022/03/08 23:13:28;;;;;;;11.90;4.90;;;-0.60;95.10;;;;;;10242419;28;20047;-88
2022/03/08 23:18:30;;;;;;;13.15;3.88;;;-0.60;95.30;;;;;;10247635;28;20046;-87
2022/03/08 23:23:32;;;;;;;11.00;4.35;;;-0.60;95.60;;;;;;10237791;28;20053;-87
2022/03/08 23:28:33;;;;;;;10.82;4.28;;;-0.70;97.30;;;;;;10249944;28;20057;-87
2022/03/08 23:33:36;;;;;;;12.98;4.22;;;-0.80;96.30;;;;;;10227406;28;20093;-88
2022/03/08 23:38:38;;;;;;;10.70;4.97;;;-0.80;97.10;;;;;;10254006;28;20066;-87
2022/03/08 23:43:40;;;;;;;10.85;3.97;;;-0.80;96.50;;;;;;10254779;28;20051;-88
2022/03/08 23:48:42;;;;;;;10.07;3.70;;;-0.90;96.40;;;;;;10200402;28;20081;-87
2022/03/08 23:53:44;;;;;;;7.25;2.88;;;-0.90;96.40;;;;;;10219797;28;20174;-87
2022/03/08 23:58:46;;;;;;;12.88;3.80;;;-0.90;95.70;;;;;;10213317;28;20039;-89
